Time;durP1;ratioP1;P1;durP2;ratioP2;P2;SDS_P1;SDS_P2;PMS_P1;PMS_P2;Temp;Humidity;BMP_temperature;BMP_pressure;BME280_temperature;BME280_humidity;BME280_pressure;Samples;Min_cycle;Max_cycle;Signal;HPM_P1;HPM_P2
2021/09/13 00:02:00;;;;;;;24.20;16.13;;;;;;;15.94;85.34;98591.09;5069608;28;20036;-60
2021/09/13 00:04:26;;;;;;;23.38;17.10;;;;;;;15.95;85.29;98582.00;5070882;28;20036;-59
2021/09/13 00:06:52;;;;;;;20.55;16.45;;;;;;;15.98;85.16;98585.97;5070813;28;20040;-60
2021/09/13 00:09:18;;;;;;;21.55;16.20;;;;;;;15.97;85.08;98589.72;5070491;28;20529;-59
2021/09/13 00:11:44;;;;;;;24.30;16.15;;;;;;;15.95;85.12;98591.91;5069601;28;20032;-59
2021/09/13 00:14:10;;;;;;;20.52;16.25;;;;;;;15.93;85.09;98583.38;5070917;28;20056;-58
2021/09/13 00:16:37;;;;;;;20.55;16.73;;;;;;;15.90;85.18;98582.06;5071140;28;20037;-59
2021/09/13 00:19:03;;;;;;;24.58;16.77;;;;;;;15.87;85.25;98588.00;5071380;28;20044;-59
2021/09/13 00:21:30;;;;;;;23.42;17.48;;;;;;;15.86;85.24;98581.06;5071362;28;20044;-59
2021/09/13 00:23:56;;;;;;;27.73;17.38;;;;;;;15.83;85.37;98579.00;5071144;28;20059;-59
2021/09/13 00:26:22;;;;;;;23.83;17.70;;;;;;;15.83;85.54;98577.09;5071406;28;20037;-60
2021/09/13 00:29:02;;;;;;;25.10;17.30;;;;;;;15.81;85.55;98568.59;5071107;28;20135;-60
2021/09/13 00:31:28;;;;;;;23.60;17.10;;;;;;;15.83;85.46;98565.63;5073840;28;20147;-59
2021/09/13 00:33:56;;;;;;;21.60;17.33;;;;;;;15.83;85.51;98562.97;5073921;28;20051;-59
2021/09/13 00:36:23;;;;;;;28.45;18.02;;;;;;;15.86;85.15;98565.84;5073798;28;20090;-59
2021/09/13 00:38:49;;;;;;;22.92;17.27;;;;;;;15.89;84.99;98565.25;5073824;28;20493;-59
2021/09/13 00:41:15;;;;;;;21.98;16.45;;;;;;;15.93;84.85;98562.00;5074007;28;20043;-59
2021/09/13 00:43:43;;;;;;;22.50;16.17;;;;;;;15.98;84.61;98560.03;5057108;28;20040;-59
2021/09/13 00:46:09;;;;;;;22.30;16.50;;;;;;;16.00;84.61;98565.88;5057006;28;20501;-58
2021/09/13 00:48:35;;;;;;;25.42;17.42;;;;;;;16.01;84.74;98562.13;5074927;28;20143;-59
2021/09/13 00:51:01;;;;;;;23.60;16.75;;;;;;;16.03;84.60;98567.16;5075001;28;20132;-59
2021/09/13 00:53:27;;;;;;;22.27;16.85;;;;;;;16.02;84.34;98568.25;5073358;28;20083;-59
2021/09/13 00:55:55;;;;;;;21.33;15.88;;;;;;;16.04;84.35;98566.09;5074623;28;20448;-61
2021/09/13 00:58:25;;;;;;;22.08;16.67;;;;;;;16.04;84.30;98563.41;5073139;28;20071;-59
2021/09/13 01:01:03;;;;;;;25.05;16.20;;;;;;;16.02;84.22;98555.69;5074455;28;20048;-59
2021/09/13 01:03:29;;;;;;;22.42;16.48;;;;;;;16.00;84.23;98563.22;5073046;28;20524;-60
2021/09/13 01:05:55;;;;;;;19.75;15.77;;;;;;;15.98;84.13;98557.34;5073244;28;20573;-60
2021/09/13 01:08:21;;;;;;;25.08;16.33;;;;;;;15.94;84.21;98553.66;5072934;28;20048;-59
2021/09/13 01:10:48;;;;;;;21.77;15.90;;;;;;;15.95;84.22;98557.16;5074287;28;20040;-61
2021/09/13 01:13:14;;;;;;;21.25;16.85;;;;;;;15.89;84.43;98551.88;5056333;28;20053;-61
2021/09/13 01:15:41;;;;;;;27.83;17.42;;;;;;;15.87;84.44;98547.91;5074293;28;20053;-58
2021/09/13 01:18:08;;;;;;;23.27;16.30;;;;;;;15.86;84.49;98546.34;5056367;28;20109;-59
2021/09/13 01:20:34;;;;;;;27.08;16.48;;;;;;;15.85;84.39;98550.06;5074242;28;20036;-60
2021/09/13 01:23:08;;;;;;;19.92;15.90;;;;;;;15.87;84.26;98542.56;5039494;28;20036;-58
2021/09/13 01:25:36;;;;;;;25.25;17.15;;;;;;;15.86;84.24;98536.44;5056430;28;20051;-59
2021/09/13 01:28:04;;;;;;;26.52;16.45;;;;;;;15.87;84.28;98538.00;5072763;28;20036;-59
2021/09/13 01:30:32;;;;;;;24.23;16.15;;;;;;;15.88;84.12;98539.63;5056458;28;20129;-60
2021/09/13 01:32:58;;;;;;;18.77;15.55;;;;;;;15.88;84.36;98536.94;5039425;28;20067;-59
2021/09/13 01:35:26;;;;;;;20.70;15.60;;;;;;;15.90;84.15;98525.94;5072658;28;20057;-59
2021/09/13 01:37:55;;;;;;;23.70;16.80;;;;;;;15.88;84.07;98530.78;5074180;28;20501;-59
2021/09/13 01:40:21;;;;;;;22.85;16.00;;;;;;;15.87;84.16;98530.00;5073958;28;20631;-60
2021/09/13 01:42:47;;;;;;;19.67;15.50;;;;;;;15.88;84.03;98523.59;5071690;28;20048;-60
2021/09/13 01:45:12;;;;;;;23.17;16.05;;;;;;;15.87;83.99;98521.19;5055977;28;20076;-59
2021/09/13 01:47:43;;;;;;;20.88;15.60;;;;;;;15.83;84.05;98526.34;5072674;28;20045;-59
2021/09/13 01:50:10;;;;;;;25.75;16.75;;;;;;;15.81;84.22;98530.38;5072679;28;20051;-60
2021/09/13 01:52:36;;;;;;;21.77;16.10;;;;;;;15.79;84.28;98527.19;5073863;28;20032;-58
2021/09/13 01:55:03;;;;;;;25.88;16.88;;;;;;;15.75;84.25;98524.31;5072513;28;20117;-59
2021/09/13 01:57:28;;;;;;;27.48;18.10;;;;;;;15.71;84.62;98520.66;5073472;28;20041;-59
2021/09/13 01:59:54;;;;;;;22.42;16.20;;;;;;;15.71;84.79;98514.53;5072369;28;20055;-60
2021/09/13 02:02:22;;;;;;;23.33;17.27;;;;;;;15.71;84.55;98514.53;5072188;28;20089;-61
2021/09/13 02:04:48;;;;;;;23.52;16.70;;;;;;;15.72;84.38;98508.88;5072251;28;20080;-61
2021/09/13 02:07:15;;;;;;;25.50;17.10;;;;;;;15.71;84.61;98509.19;5073433;28;20075;-59
2021/09/13 02:09:44;;;;;;;25.67;17.63;;;;;;;15.71;84.69;98507.31;5055564;28;20093;-58
2021/09/13 02:12:15;;;;;;;22.52;17.27;;;;;;;15.72;84.79;98497.41;5071989;28;20048;-60
2021/09/13 02:14:41;;;;;;;22.42;15.95;;;;;;;15.70;84.63;98503.03;5072062;28;20060;-58
2021/09/13 02:17:06;;;;;;;21.83;16.58;;;;;;;15.66;84.80;98505.47;5072300;28;20082;-59
2021/09/13 02:19:32;;;;;;;24.73;17.40;;;;;;;15.62;84.85;98493.78;5071195;28;20041;-59
2021/09/13 02:21:58;;;;;;;24.65;16.13;;;;;;;15.60;84.89;98493.28;5071072;28;20036;-60
2021/09/13 02:24:24;;;;;;;23.95;16.27;;;;;;;15.58;85.33;98495.44;5071148;28;20517;-59
2021/09/13 02:26:50;;;;;;;24.55;17.38;;;;;;;15.59;85.10;98496.25;5070982;28;20421;-59
2021/09/13 02:29:16;;;;;;;29.27;16.20;;;;;;;15.58;84.98;98498.09;5071141;28;20071;-59
2021/09/13 02:31:43;;;;;;;26.70;17.15;;;;;;;15.59;84.89;98498.94;5071114;28;20036;-59
2021/09/13 02:34:09;;;;;;;24.35;16.92;;;;;;;15.61;84.80;98499.41;5070802;28;20101;-58
2021/09/13 02:36:35;;;;;;;23.50;15.82;;;;;;;15.62;84.85;98493.78;5070790;28;20412;-58
2021/09/13 02:39:02;;;;;;;21.63;15.68;;;;;;;15.63;84.97;98497.25;5070735;28;20040;-59
2021/09/13 02:41:28;;;;;;;23.02;15.48;;;;;;;15.63;84.73;98484.69;5070755;28;20058;-59
2021/09/13 02:43:54;;;;;;;21.33;16.15;;;;;;;15.64;84.64;98486.25;5070754;28;20096;-59
2021/09/13 02:46:20;;;;;;;20.23;14.95;;;;;;;15.63;84.67;98482.00;5070605;28;20123;-60
2021/09/13 02:48:49;;;;;;;20.85;16.05;;;;;;;15.64;84.73;98477.44;5054565;28;20049;-60
2021/09/13 02:51:19;;;;;;;22.50;16.20;;;;;;;15.60;84.65;98471.91;5070457;28;20048;-59
2021/09/13 02:53:45;;;;;;;21.25;16.45;;;;;;;15.67;84.51;98469.66;5069174;28;20043;-59
2021/09/13 02:56:12;;;;;;;25.73;17.02;;;;;;;15.66;84.64;98476.06;5070343;28;20502;-60
2021/09/13 02:58:43;;;;;;;21.27;15.60;;;;;;;15.67;84.57;98475.00;5070172;28;20044;-58
2021/09/13 03:01:10;;;;;;;22.00;15.23;;;;;;;15.68;84.61;98473.16;5070355;28;20095;-59
2021/09/13 03:03:37;;;;;;;26.92;17.50;;;;;;;15.69;84.58;98468.59;5053651;28;20044;-58
2021/09/13 03:06:03;;;;;;;28.15;16.98;;;;;;;15.71;84.39;98469.13;5053669;28;20072;-59
2021/09/13 03:08:29;;;;;;;22.65;16.52;;;;;;;15.72;84.07;98468.00;5071614;28;20705;-59
2021/09/13 03:10:54;;;;;;;21.58;16.40;;;;;;;15.72;84.05;98468.81;5069992;28;20044;-60
2021/09/13 03:13:20;;;;;;;27.25;16.98;;;;;;;15.71;84.06;98466.44;5070947;28;20143;-59
2021/09/13 03:15:46;;;;;;;20.40;16.20;;;;;;;15.75;83.88;98470.88;5071327;28;20075;-60
2021/09/13 03:18:12;;;;;;;20.02;15.73;;;;;;;15.73;83.79;98457.03;5053196;28;20501;-60
2021/09/13 03:20:38;;;;;;;22.60;16.65;;;;;;;15.77;83.76;98460.72;5071029;28;20040;-60
2021/09/13 03:23:04;;;;;;;22.80;16.33;;;;;;;15.80;83.64;98462.78;5069711;28;20048;-59
2021/09/13 03:25:30;;;;;;;25.88;16.58;;;;;;;15.82;83.48;98459.81;5071198;28;20040;-60
2021/09/13 03:27:58;;;;;;;22.67;15.00;;;;;;;15.84;83.52;98465.66;5053410;28;20051;-59
2021/09/13 03:30:28;;;;;;;29.20;16.30;;;;;;;15.85;83.52;98462.72;5069625;28;20039;-60
2021/09/13 03:32:54;;;;;;;23.23;16.10;;;;;;;15.81;83.47;98450.22;5053032;28;20083;-60
2021/09/13 03:35:21;;;;;;;24.58;16.92;;;;;;;15.86;83.21;98460.81;5069608;28;20440;-58
2021/09/13 03:37:46;;;;;;;21.05;15.30;;;;;;;15.85;83.05;98457.38;5052892;28;20072;-60
2021/09/13 03:40:13;;;;;;;21.45;15.82;;;;;;;15.82;83.19;98462.47;5069648;28;20044;-60
2021/09/13 03:42:39;;;;;;;22.08;15.93;;;;;;;15.78;82.91;98456.94;5052822;28;20109;-59
2021/09/13 03:45:06;;;;;;;21.45;15.95;;;;;;;15.82;82.76;98467.81;5069669;28;20505;-59
2021/09/13 03:47:57;;;;;;;23.15;15.45;;;;;;;15.78;83.01;98464.94;5069443;28;20083;-60
2021/09/13 03:50:24;;;;;;;18.67;14.38;;;;;;;15.82;82.62;98457.13;5069424;28;20043;-60
2021/09/13 03:52:51;;;;;;;18.85;15.10;;;;;;;15.90;82.17;98459.94;5069099;28;20052;-59
2021/09/13 03:55:17;;;;;;;19.95;15.00;;;;;;;15.95;81.60;98460.94;5069215;28;20052;-61
2021/09/13 03:57:43;;;;;;;19.15;15.15;;;;;;;16.01;81.51;98454.41;5052503;28;20033;-60
2021/09/13 04:00:10;;;;;;;17.80;13.98;;;;;;;16.08;81.22;98454.81;5052694;28;20036;-60
2021/09/13 04:02:47;;;;;;;22.35;14.85;;;;;;;16.12;81.10;98458.47;5069267;28;20048;-60
2021/09/13 04:05:20;;;;;;;18.77;14.70;;;;;;;16.14;80.88;98461.63;5053181;28;20403;-59
2021/09/13 04:08:12;;;;;;;16.48;14.45;;;;;;;16.18;80.81;98464.50;5052270;28;20036;-58
2021/09/13 04:11:17;;;;;;;23.95;15.25;;;;;;;16.22;80.60;98449.47;5066816;28;20056;-59
2021/09/13 04:14:03;;;;;;;18.52;14.30;;;;;;;16.25;80.57;98448.88;5055533;28;20095;-59
2021/09/13 04:16:34;;;;;;;17.92;13.65;;;;;;;16.26;80.32;98447.78;5051065;28;20056;-59
2021/09/13 04:19:19;;;;;;;21.35;13.68;;;;;;;16.31;79.88;98445.00;5051020;28;20169;-58
2021/09/13 04:22:06;;;;;;;20.10;13.93;;;;;;;16.26;79.82;98440.53;5066995;28;20053;-60
2021/09/13 04:24:58;;;;;;;18.08;13.63;;;;;;;16.31;79.46;98445.00;5067267;28;20114;-64
2021/09/13 04:27:46;;;;;;;18.42;13.23;;;;;;;16.39;78.93;98436.28;5051959;28;20044;-61
2021/09/13 04:30:29;;;;;;;17.25;13.07;;;;;;;16.42;78.76;98435.69;5051983;28;20056;-60
2021/09/13 04:33:25;;;;;;;18.15;13.65;;;;;;;16.49;78.41;98443.31;5051840;28;20567;-59
2021/09/13 04:36:22;;;;;;;19.00;13.65;;;;;;;16.45;78.53;98445.78;5025362;28;20098;-60
2021/09/13 04:39:08;;;;;;;19.58;13.25;;;;;;;16.49;78.21;98441.41;5067153;28;20139;-60
2021/09/13 04:41:58;;;;;;;18.50;13.20;;;;;;;16.53;78.14;98434.41;5054151;28;20162;-60
2021/09/13 04:44:53;;;;;;;17.65;12.80;;;;;;;16.51;77.87;98435.78;5070079;28;20062;-60
2021/09/13 04:47:37;;;;;;;22.70;13.13;;;;;;;16.52;77.86;98423.97;5081700;28;20098;-61
2021/09/13 04:50:34;;;;;;;18.85;13.32;;;;;;;16.50;77.44;98424.31;5071065;28;20409;-61
2021/09/13 04:53:19;;;;;;;19.88;14.35;;;;;;;16.54;77.15;98425.28;5070577;28;20488;-60
2021/09/13 04:55:46;;;;;;;20.08;13.65;;;;;;;16.57;77.34;98426.56;5069305;28;20123;-61
2021/09/13 04:58:12;;;;;;;16.90;12.75;;;;;;;16.67;77.34;98433.56;5069490;28;20044;-63
2021/09/13 05:00:38;;;;;;;19.67;13.75;;;;;;;16.62;76.91;98429.13;5069391;28;20044;-61
2021/09/13 05:03:04;;;;;;;21.02;14.30;;;;;;;16.72;76.71;98434.25;5069218;28;20047;-60
2021/09/13 05:05:31;;;;;;;17.95;13.52;;;;;;;16.79;75.97;98420.47;5064188;28;20508;-60
2021/09/13 05:07:57;;;;;;;19.80;13.90;;;;;;;16.98;76.04;98431.06;5052682;28;20067;-59
2021/09/13 05:10:24;;;;;;;22.08;13.80;;;;;;;17.10;75.51;98427.84;5080288;28;20540;-61
2021/09/13 05:12:51;;;;;;;18.38;13.00;;;;;;;17.17;74.53;98420.16;5089200;28;20076;-60
2021/09/13 05:15:19;;;;;;;19.98;13.50;;;;;;;17.24;74.38;98423.22;5089465;28;20048;-61
2021/09/13 05:17:45;;;;;;;18.98;12.18;;;;;;;17.34;74.27;98425.66;5090961;28;20040;-60
2021/09/13 05:20:12;;;;;;;20.52;12.90;;;;;;;17.44;73.54;98420.06;5095017;28;20101;-62
2021/09/13 05:22:39;;;;;;;16.45;12.95;;;;;;;17.48;73.21;98421.00;5076312;28;20047;-61
2021/09/13 05:25:07;;;;;;;17.20;11.95;;;;;;;17.57;72.85;98418.38;5076138;28;20464;-61
2021/09/13 05:27:35;;;;;;;18.85;12.43;;;;;;;17.69;72.63;98415.91;5092981;28;20044;-60
2021/09/13 05:30:01;;;;;;;15.23;12.02;;;;;;;17.73;71.96;98415.31;5093319;28;20401;-60
2021/09/13 05:32:28;;;;;;;18.15;12.43;;;;;;;17.74;72.12;98404.28;5092783;28;20048;-61
2021/09/13 05:34:55;;;;;;;17.52;11.98;;;;;;;17.67;71.88;98409.28;5076346;28;20047;-60
2021/09/13 05:37:21;;;;;;;17.95;12.77;;;;;;;17.67;71.97;98407.38;5092864;28;20097;-60
2021/09/13 05:39:48;;;;;;;20.75;12.65;;;;;;;17.70;72.05;98412.13;5093108;28;20043;-63
2021/09/13 05:42:18;;;;;;;15.73;12.32;;;;;;;17.77;71.33;98405.56;5092822;28;20056;-61
2021/09/13 05:44:46;;;;;;;15.80;12.15;;;;;;;17.81;71.57;98396.63;5092681;28;20118;-61
2021/09/13 05:47:12;;;;;;;17.70;12.35;;;;;;;17.90;71.45;98402.00;5088270;28;20189;-61
2021/09/13 05:49:38;;;;;;;17.88;12.55;;;;;;;18.02;70.93;98401.44;5087965;28;20039;-60
2021/09/13 05:52:07;;;;;;;20.40;11.60;;;;;;;18.11;69.64;98389.63;5091506;28;20188;-61
2021/09/13 05:54:41;;;;;;;15.88;11.52;;;;;;;18.25;69.45;98388.72;5090948;28;20051;-61
2021/09/13 05:57:07;;;;;;;17.98;12.93;;;;;;;18.36;69.12;98388.13;5091851;28;20044;-60
2021/09/13 05:59:33;;;;;;;19.80;12.02;;;;;;;18.54;68.31;98390.84;5091873;28;20553;-61
2021/09/13 06:02:03;;;;;;;17.17;11.48;;;;;;;18.66;68.04;98390.22;5091337;28;20067;-61
2021/09/13 06:04:32;;;;;;;14.48;12.32;;;;;;;18.68;67.79;98391.47;5088732;28;20469;-61
2021/09/13 06:07:00;;;;;;;15.15;11.07;;;;;;;18.80;67.39;98389.00;5090099;28;20064;-61
2021/09/13 06:09:28;;;;;;;17.38;12.43;;;;;;;18.89;66.99;98388.22;5091704;28;20130;-61
2021/09/13 06:11:53;;;;;;;17.27;11.63;;;;;;;18.88;66.96;98381.25;5088674;28;20136;-61
2021/09/13 06:14:20;;;;;;;17.55;11.90;;;;;;;18.95;66.67;98389.63;5088592;28;20067;-61
2021/09/13 06:16:46;;;;;;;15.48;10.40;;;;;;;18.96;66.22;98391.97;5088358;28;20040;-61
2021/09/13 06:19:12;;;;;;;16.17;10.93;;;;;;;18.94;65.81;98396.91;5087754;28;20131;-62
2021/09/13 06:21:39;;;;;;;14.10;11.57;;;;;;;18.98;66.17;98397.03;5069674;28;20422;-60
2021/09/13 06:24:06;;;;;;;16.25;10.95;;;;;;;19.07;66.03;98397.81;5072160;28;20087;-60
2021/09/13 06:26:37;;;;;;;15.77;11.23;;;;;;;19.21;65.22;98397.66;5089037;28;20094;-63
2021/09/13 06:29:05;;;;;;;17.35;11.38;;;;;;;19.24;65.02;98399.72;5090538;28;20386;-60
2021/09/13 06:31:31;;;;;;;23.58;11.65;;;;;;;19.14;65.31;98392.75;5073281;28;20509;-61
2021/09/13 06:33:57;;;;;;;14.70;10.88;;;;;;;19.04;65.85;98393.88;5090353;28;20055;-60
2021/09/13 06:36:23;;;;;;;16.17;11.90;;;;;;;19.18;65.44;98395.63;5090258;28;20054;-62
2021/09/13 06:38:50;;;;;;;15.05;11.20;;;;;;;19.26;65.16;98392.88;5070538;28;20164;-62
2021/09/13 06:41:16;;;;;;;15.57;11.10;;;;;;;19.24;65.11;98395.13;5089884;28;20048;-61
2021/09/13 06:43:43;;;;;;;16.33;11.05;;;;;;;19.27;64.99;98394.50;5089326;28;20495;-61
2021/09/13 06:46:20;;;;;;;14.98;10.73;;;;;;;19.34;64.42;98391.31;5090377;28;20570;-60
2021/09/13 06:48:46;;;;;;;19.10;11.05;;;;;;;19.28;64.74;98397.97;5085279;28;20043;-61
2021/09/13 06:51:11;;;;;;;16.75;11.25;;;;;;;19.19;65.12;98391.81;5087126;28;20048;-61
2021/09/13 06:53:37;;;;;;;14.32;11.10;;;;;;;19.22;64.69;98391.97;5088572;28;20139;-60
2021/09/13 06:56:04;;;;;;;18.58;11.80;;;;;;;19.18;64.39;98387.56;5088207;28;20139;-62
2021/09/13 06:58:31;;;;;;;18.48;11.50;;;;;;;19.25;64.51;98391.31;5089706;28;20123;-61
2021/09/13 07:00:57;;;;;;;15.57;10.73;;;;;;;19.28;63.76;98387.22;5090183;28;20044;-59
2021/09/13 07:03:24;;;;;;;17.10;11.43;;;;;;;19.29;63.66;98386.91;5088625;28;20043;-60
2021/09/13 07:05:50;;;;;;;15.25;11.35;;;;;;;19.31;63.47;98385.78;5087231;28;20054;-60
2021/09/13 07:08:17;;;;;;;17.85;11.65;;;;;;;19.31;63.61;98393.84;5088804;28;20054;-60
2021/09/13 07:10:43;;;;;;;16.27;11.77;;;;;;;19.36;63.42;98385.63;5088173;28;20604;-59
2021/09/13 07:13:10;;;;;;;17.65;11.70;;;;;;;19.41;62.94;98377.38;5087626;28;20431;-61
2021/09/13 07:15:36;;;;;;;18.10;11.32;;;;;;;19.50;62.14;98378.94;5087891;28;20369;-61
2021/09/13 07:18:04;;;;;;;17.17;11.68;;;;;;;19.58;62.56;98374.66;5088157;28;20042;-59
2021/09/13 07:20:30;;;;;;;16.58;11.02;;;;;;;19.65;61.86;98369.59;5089215;28;20040;-61
2021/09/13 07:22:57;;;;;;;14.35;11.00;;;;;;;19.70;62.07;98366.72;5087913;28;20040;-62
2021/09/13 07:25:23;;;;;;;13.93;10.90;;;;;;;19.77;61.70;98368.16;5087392;28;20463;-61
2021/09/13 07:27:48;;;;;;;16.77;11.38;;;;;;;19.84;61.40;98363.03;5084809;28;20074;-60
2021/09/13 07:30:14;;;;;;;16.65;10.88;;;;;;;19.96;61.08;98363.13;5087395;28;20044;-62
2021/09/13 07:32:41;;;;;;;15.77;10.43;;;;;;;19.95;61.11;98367.72;5087193;28;20040;-62
2021/09/13 07:35:09;;;;;;;13.35;10.55;;;;;;;19.88;61.11;98355.91;5070616;28;20051;-60
2021/09/13 07:37:36;;;;;;;17.92;10.30;;;;;;;19.96;60.93;98355.06;5064972;28;20040;-60
2021/09/13 07:40:03;;;;;;;12.43;10.15;;;;;;;20.04;60.78;98348.06;5066291;28;20040;-59
2021/09/13 07:42:29;;;;;;;13.45;9.82;;;;;;;20.24;60.23;98355.41;5066177;28;20326;-60
2021/09/13 07:44:55;;;;;;;18.27;10.93;;;;;;;20.37;60.31;98350.88;5066489;28;20301;-61
2021/09/13 07:47:22;;;;;;;15.68;10.50;;;;;;;20.38;60.25;98347.06;5064241;28;20044;-59
2021/09/13 07:49:48;;;;;;;15.05;11.55;;;;;;;20.37;59.94;98342.81;5065426;28;20082;-62
2021/09/13 07:52:14;;;;;;;14.05;10.45;;;;;;;20.32;60.21;98349.16;5067182;28;20049;-59
2021/09/13 07:54:40;;;;;;;13.90;10.18;;;;;;;20.33;60.06;98337.28;5063642;28;20143;-60
2021/09/13 07:57:05;;;;;;;15.90;10.35;;;;;;;20.27;60.63;98332.44;5065051;28;20055;-60
2021/09/13 07:59:31;;;;;;;13.63;10.10;;;;;;;20.28;60.32;98339.38;5067257;28;20102;-60
2021/09/13 08:01:57;;;;;;;15.02;10.02;;;;;;;20.28;59.96;98336.69;5066924;28;20335;-61
2021/09/13 08:04:23;;;;;;;12.18;9.90;;;;;;;20.29;59.31;98332.88;5065749;28;20515;-61
2021/09/13 08:06:49;;;;;;;14.50;9.20;;;;;;;20.36;58.73;98327.78;5065646;28;20044;-60
2021/09/13 08:09:15;;;;;;;14.48;8.80;;;;;;;20.39;58.46;98333.28;5049589;28;20039;-61
2021/09/13 08:11:41;;;;;;;14.27;9.45;;;;;;;20.38;57.67;98334.41;5068569;28;20045;-61
2021/09/13 08:14:07;;;;;;;14.57;8.98;;;;;;;20.47;57.43;98320.91;5067679;28;20421;-60
2021/09/13 08:16:34;;;;;;;14.02;9.00;;;;;;;20.58;56.88;98327.47;5068265;28;20070;-59
2021/09/13 08:19:04;;;;;;;15.32;9.80;;;;;;;20.68;56.92;98322.78;5068860;28;20549;-60
2021/09/13 08:21:30;;;;;;;12.32;9.35;;;;;;;20.72;56.07;98319.13;5067273;28;20190;-60
2021/09/13 08:23:56;;;;;;;10.98;8.57;;;;;;;20.79;56.12;98313.19;5066275;28;20041;-61
2021/09/13 08:26:23;;;;;;;12.07;8.45;;;;;;;20.86;55.53;98316.16;5066321;28;20131;-60
2021/09/13 08:28:49;;;;;;;14.57;8.52;;;;;;;20.90;54.48;98311.66;5066285;28;20037;-61
2021/09/13 08:31:15;;;;;;;14.82;8.70;;;;;;;20.95;54.14;98308.00;5067438;28;20071;-61
2021/09/13 08:33:40;;;;;;;13.57;8.27;;;;;;;21.04;55.25;98314.09;5067430;28;20044;-59
2021/09/13 08:36:06;;;;;;;12.63;8.25;;;;;;;21.06;52.77;98301.84;5067733;28;20318;-62
2021/09/13 08:38:32;;;;;;;10.57;7.97;;;;;;;21.17;53.37;98298.72;5067774;28;20072;-61
2021/09/13 08:40:58;;;;;;;13.27;8.55;;;;;;;21.22;52.57;98302.00;5065607;28;20093;-62
2021/09/13 08:43:24;;;;;;;13.82;7.90;;;;;;;21.31;52.38;98297.28;5068059;28;20509;-62
2021/09/13 08:45:55;;;;;;;14.27;7.95;;;;;;;21.34;52.00;98295.84;5068552;28;20045;-63
2021/09/13 08:48:34;;;;;;;12.45;8.23;;;;;;;21.36;51.80;98290.94;5066824;28;20519;-62
2021/09/13 08:53:32;;;;;;;11.80;7.43;;;;;;;21.42;50.39;98283.41;5070798;28;20041;-65
2021/09/13 08:55:59;;;;;;;14.50;8.80;;;;;;;21.45;49.54;98274.66;5070732;28;20354;-64
2021/09/13 08:58:25;;;;;;;11.10;8.18;;;;;;;21.50;50.48;98269.03;5072026;28;20041;-64
2021/09/13 09:00:52;;;;;;;12.15;8.02;;;;;;;21.57;49.80;98277.34;5070432;28;20094;-66
2021/09/13 09:03:19;;;;;;;12.82;8.75;;;;;;;21.61;49.29;98269.38;5070125;28;20071;-64
2021/09/13 09:05:50;;;;;;;14.73;7.75;;;;;;;21.62;48.69;98262.84;5051358;28;20044;-65
2021/09/13 09:08:27;;;;;;;11.45;7.22;;;;;;;21.74;48.91;98268.25;5053008;28;20040;-63
2021/09/13 09:10:55;;;;;;;12.02;8.20;;;;;;;21.83;49.24;98255.44;5071689;28;20044;-65
2021/09/13 09:13:22;;;;;;;13.35;8.30;;;;;;;21.95;48.60;98265.44;5069496;28;20045;-63
2021/09/13 09:15:57;;;;;;;12.18;8.02;;;;;;;21.95;48.92;98249.25;5053790;28;20080;-63
2021/09/13 09:18:24;;;;;;;10.57;8.00;;;;;;;21.94;48.89;98248.47;5071014;28;20048;-64
2021/09/13 09:20:50;;;;;;;10.70;7.88;;;;;;;21.95;48.19;98251.94;5069478;28;20102;-63
2021/09/13 09:23:16;;;;;;;11.20;8.18;;;;;;;21.98;48.82;98246.63;5071458;28;20044;-63
2021/09/13 09:25:43;;;;;;;12.50;7.88;;;;;;;21.94;48.75;98250.34;5069890;28;20044;-63
2021/09/13 09:28:12;;;;;;;11.95;7.90;;;;;;;22.07;48.88;98245.72;5070480;28;20109;-62
2021/09/13 09:30:40;;;;;;;14.98;8.60;;;;;;;22.17;48.87;98253.38;5052837;28;20044;-63
2021/09/13 09:33:13;;;;;;;10.70;8.18;;;;;;;22.32;48.41;98238.38;5067907;28;20036;-63
2021/09/13 09:35:44;;;;;;;13.25;7.70;;;;;;;22.44;47.86;98238.31;5070482;28;20059;-64
2021/09/13 09:38:30;;;;;;;12.57;7.72;;;;;;;22.50;46.63;98241.56;5068936;28;20046;-62
2021/09/13 09:41:11;;;;;;;16.50;7.97;;;;;;;22.54;46.15;98235.13;5053060;28;20151;-63
2021/09/13 09:44:06;;;;;;;7.85;7.05;;;;;;;22.53;46.64;98227.38;5063864;28;20051;-62
2021/09/13 09:46:40;;;;;;;11.85;7.93;;;;;;;22.55;46.53;98230.50;5069011;28;20555;-62
2021/09/13 09:49:19;;;;;;;11.00;7.57;;;;;;;22.55;46.54;98233.22;5071882;28;20036;-60
2021/09/13 09:51:55;;;;;;;12.50;8.20;;;;;;;22.53;46.39;98219.25;5069750;28;20044;-62
2021/09/13 09:54:24;;;;;;;11.65;7.57;;;;;;;22.51;46.65;98229.66;5070517;28;20306;-63
2021/09/13 09:57:20;;;;;;;10.38;8.07;;;;;;;22.59;47.18;98228.69;5070212;28;20049;-61
2021/09/13 09:59:46;;;;;;;13.82;8.32;;;;;;;22.67;47.25;98235.84;5071019;28;20036;-61
2021/09/13 10:02:17;;;;;;;10.35;7.75;;;;;;;22.74;47.07;98227.19;5068596;28;20055;-63
2021/09/13 10:04:45;;;;;;;11.63;8.52;;;;;;;22.73;46.85;98228.28;5075165;28;20040;-62
2021/09/13 10:07:14;;;;;;;9.38;7.38;;;;;;;22.75;46.82;98234.13;5087361;28;20418;-60
2021/09/13 10:09:41;;;;;;;9.35;7.30;;;;;;;22.76;47.38;98231.06;5089871;28;20040;-61
2021/09/13 10:12:06;;;;;;;10.80;7.50;;;;;;;22.72;47.07;98229.44;5087327;28;20040;-63
2021/09/13 10:14:33;;;;;;;13.93;8.30;;;;;;;22.75;46.77;98231.44;5088826;28;20052;-64
2021/09/13 10:16:59;;;;;;;10.95;7.75;;;;;;;22.82;47.32;98226.22;5089919;28;20133;-63
2021/09/13 10:19:26;;;;;;;11.45;7.45;;;;;;;22.90;46.45;98219.88;5089773;28;20643;-62
2021/09/13 10:21:53;;;;;;;10.05;7.82;;;;;;;22.97;46.47;98221.97;5087871;28;20059;-63
2021/09/13 10:24:19;;;;;;;11.43;7.75;;;;;;;23.05;45.96;98215.63;5090726;28;20118;-63
2021/09/13 10:26:48;;;;;;;12.48;7.50;;;;;;;23.00;46.36;98219.38;5072927;28;20340;-63
2021/09/13 10:29:16;;;;;;;9.57;8.02;;;;;;;23.03;46.49;98220.59;5083825;28;20473;-62
2021/09/13 10:31:41;;;;;;;10.52;8.13;;;;;;;23.21;46.29;98216.44;5088675;28;20295;-64
2021/09/13 10:34:18;;;;;;;8.50;7.60;;;;;;;23.35;45.62;98211.38;5089582;28;20125;-64
2021/09/13 10:37:14;;;;;;;9.95;7.82;;;;;;;23.42;45.59;98205.31;5086246;28;20048;-62
2021/09/13 10:39:56;;;;;;;10.50;7.35;;;;;;;23.42;44.80;98197.22;5053939;28;20062;-67
2021/09/13 10:42:42;;;;;;;13.48;8.27;;;;;;;23.43;44.83;98198.78;5090030;28;20135;-69
2021/09/13 10:45:13;;;;;;;10.32;7.93;;;;;;;23.49;44.88;98194.66;5090516;28;20043;-63
2021/09/13 10:47:41;;;;;;;13.35;7.47;;;;;;;23.46;44.90;98198.06;5086350;28;20044;-69
2021/09/13 10:50:14;;;;;;;13.10;8.00;;;;;;;23.56;44.92;98194.06;5053898;28;20043;-62
2021/09/13 10:52:40;;;;;;;11.45;7.95;;;;;;;23.68;44.52;98198.53;5086000;28;20051;-60
2021/09/13 10:55:09;;;;;;;13.88;7.82;;;;;;;23.69;45.15;98187.38;5089869;28;20086;-59
2021/09/13 10:58:11;;;;;;;10.13;7.55;;;;;;;23.60;44.23;98191.44;5087963;28;20036;-63
2021/09/13 11:00:37;;;;;;;13.00;7.80;;;;;;;23.56;43.93;98196.75;5087134;28;20570;-60
2021/09/13 11:03:34;;;;;;;11.68;7.57;;;;;;;23.48;44.19;98187.69;5087929;28;20039;-60
2021/09/13 11:06:06;;;;;;;13.60;7.55;;;;;;;23.41;44.56;98187.50;5088018;28;20040;-63
2021/09/13 11:08:48;;;;;;;10.45;7.60;;;;;;;23.36;44.52;98185.09;5088291;28;20058;-64
2021/09/13 11:11:19;;;;;;;10.00;7.38;;;;;;;23.31;44.68;98183.44;5073020;28;20105;-60
2021/09/13 11:13:47;;;;;;;10.50;7.68;;;;;;;23.26;44.78;98183.69;5089135;28;20067;-61
2021/09/13 11:16:17;;;;;;;9.75;7.70;;;;;;;23.11;45.08;98184.50;5085402;28;20047;-61
2021/09/13 11:18:47;;;;;;;9.90;7.20;;;;;;;23.09;44.42;98187.56;5087053;28;20123;-62
2021/09/13 11:21:19;;;;;;;9.93;6.97;;;;;;;23.04;45.10;98187.03;5072703;28;20040;-60
2021/09/13 11:23:58;;;;;;;10.80;7.22;;;;;;;22.96;45.36;98190.69;5091291;28;20135;-59
2021/09/13 11:26:37;;;;;;;12.85;7.35;;;;;;;22.87;45.32;98188.13;5074903;28;20409;-61
2021/09/13 11:29:12;;;;;;;9.07;6.90;;;;;;;22.65;45.83;98178.72;5091083;28;20490;-61
2021/09/13 11:31:39;;;;;;;13.02;7.90;;;;;;;22.52;46.66;98180.69;5089893;28;20110;-62
2021/09/13 11:34:18;;;;;;;11.13;7.13;;;;;;;22.37;46.83;98176.03;5090151;28;20048;-62